createdAt,value
2023-02-04T00:00:24.335Z,79.87
2023-02-04T00:02:53.646Z,79.50
2023-02-04T00:05:21.889Z,79.25
2023-02-04T00:07:48.882Z,80.04
2023-02-04T00:10:16.159Z,79.14
2023-02-04T00:12:43.025Z,78.48
2023-02-04T00:15:10.762Z,78.27
2023-02-04T00:17:40.041Z,77.99
2023-02-04T00:20:07.403Z,78.32
2023-02-04T00:22:34.211Z,77.91
2023-02-04T00:25:03.703Z,77.99
2023-02-04T00:27:30.631Z,77.42
2023-02-04T00:30:00.508Z,76.86
2023-02-04T00:32:27.473Z,76.82
2023-02-04T00:34:56.595Z,76.51
2023-02-04T00:37:26.224Z,76.42
2023-02-04T00:39:55.215Z,76.19
2023-02-04T00:42:22.294Z,75.82
2023-02-04T00:44:54.474Z,76.24
2023-02-04T00:47:21.402Z,76.24
2023-02-04T00:49:48.268Z,76.72
2023-02-04T00:52:19.811Z,76.87
2023-02-04T00:54:46.655Z,76.89
2023-02-04T00:57:13.628Z,77.53
2023-02-04T00:59:40.500Z,77.05
2023-02-04T01:02:07.578Z,77.48
2023-02-04T01:04:34.419Z,77.17
2023-02-04T01:07:01.448Z,76.74
2023-02-04T01:09:34.014Z,75.98
2023-02-04T01:12:05.882Z,76.37
2023-02-04T01:14:35.414Z,76.14
2023-02-04T01:17:02.354Z,76.40
2023-02-04T01:19:29.276Z,76.84
2023-02-04T01:21:56.133Z,76.99
2023-02-04T01:24:25.343Z,77.26
2023-02-04T01:26:58.447Z,78.13
2023-02-04T01:29:29.904Z,78.40
2023-02-04T01:31:59.309Z,77.92
2023-02-04T01:34:31.493Z,78.47
2023-02-04T01:36:58.470Z,76.83
2023-02-04T01:39:25.434Z,77.84
2023-02-04T01:41:52.434Z,78.05
2023-02-04T01:44:19.277Z,77.86
2023-02-04T01:46:48.375Z,77.07
2023-02-04T01:49:20.300Z,77.73
2023-02-04T01:51:47.529Z,78.05
2023-02-04T01:54:18.007Z,77.81
2023-02-04T01:56:51.539Z,77.77
2023-02-04T01:59:26.912Z,77.13
2023-02-04T02:01:56.575Z,76.87
2023-02-04T02:04:32.901Z,77.58
2023-02-04T02:07:05.811Z,77.64
2023-02-04T02:09:37.663Z,78.26
2023-02-04T02:12:04.954Z,78.52
2023-02-04T02:14:31.768Z,79.05
2023-02-04T02:17:01.227Z,77.87
2023-02-04T02:19:36.509Z,78.15
2023-02-04T02:22:11.537Z,78.06
2023-02-04T02:24:38.369Z,77.40
2023-02-04T02:27:09.553Z,78.00
2023-02-04T02:29:41.422Z,77.15
2023-02-04T02:32:11.311Z,78.23
2023-02-04T02:34:39.504Z,77.54
2023-02-04T02:37:10.142Z,78.12
2023-02-04T02:39:47.167Z,78.10
2023-02-04T02:42:18.016Z,77.65
2023-02-04T02:44:49.503Z,78.01
2023-02-04T02:47:21.758Z,79.12
2023-02-04T02:49:54.666Z,79.07
2023-02-04T02:52:23.007Z,80.60
2023-02-04T02:54:53.677Z,79.24
2023-02-04T02:57:23.221Z,79.06
2023-02-04T02:59:50.498Z,79.95
2023-02-04T03:02:23.925Z,79.37
2023-02-04T03:05:01.565Z,79.01
2023-02-04T03:07:28.660Z,79.39
2023-02-04T03:09:58.730Z,79.36
2023-02-04T03:12:25.800Z,80.23
2023-02-04T03:14:52.674Z,80.18
2023-02-04T03:17:19.894Z,80.46
2023-02-04T03:19:46.832Z,79.65
2023-02-04T03:22:16.497Z,80.39
2023-02-04T03:24:43.507Z,80.61
2023-02-04T03:27:10.417Z,81.45
2023-02-04T03:29:48.452Z,80.95
2023-02-04T03:32:15.499Z,81.87
2023-02-04T03:34:42.437Z,81.07
2023-02-04T03:37:09.628Z,81.02
2023-02-04T03:39:41.006Z,80.39
2023-02-04T03:42:10.437Z,81.56
2023-02-04T03:44:41.856Z,80.45
2023-02-04T03:47:08.823Z,79.40
2023-02-04T03:49:36.188Z,79.19
2023-02-04T03:52:04.368Z,79.55
2023-02-04T03:54:34.301Z,79.17
2023-02-04T03:57:01.179Z,80.05
2023-02-04T03:59:28.106Z,79.35
2023-02-04T04:01:55.081Z,78.70
2023-02-04T04:04:22.111Z,79.27
2023-02-04T04:06:48.942Z,78.35
2023-02-04T04:09:18.285Z,77.62
2023-02-04T04:11:48.231Z,78.26
2023-02-04T04:14:15.241Z,78.39
2023-02-04T04:16:44.400Z,78.24
2023-02-04T04:19:11.397Z,77.71
2023-02-04T04:21:43.074Z,76.68
2023-02-04T04:24:12.207Z,76.40
2023-02-04T04:26:41.454Z,76.74
2023-02-04T04:29:13.153Z,76.10
2023-02-04T04:31:41.358Z,76.67
2023-02-04T04:34:13.319Z,76.36
2023-02-04T04:36:40.719Z,76.44
2023-02-04T04:39:07.589Z,76.41
2023-02-04T04:41:39.137Z,75.73
2023-02-04T04:44:06.298Z,75.28
2023-02-04T04:46:35.730Z,76.56
2023-02-04T04:49:02.762Z,76.45
2023-02-04T04:51:31.931Z,76.73
2023-02-04T04:53:59.939Z,76.18
2023-02-04T04:56:26.973Z,76.81
2023-02-04T04:58:53.825Z,76.58
2023-02-04T05:01:22.543Z,75.38
2023-02-04T05:03:54.353Z,74.62
2023-02-04T05:06:25.357Z,75.30
2023-02-04T05:08:55.680Z,75.18
2023-02-04T05:11:25.659Z,74.51
2023-02-04T05:13:52.586Z,74.91
2023-02-04T05:16:24.291Z,76.02
2023-02-04T05:18:51.392Z,74.48
2023-02-04T05:21:18.332Z,74.83
2023-02-04T05:23:47.384Z,75.49
2023-02-04T05:26:25.145Z,76.04
2023-02-04T05:28:56.358Z,75.63
2023-02-04T05:31:24.196Z,75.94
2023-02-04T05:33:54.609Z,75.61
2023-02-04T05:36:22.052Z,75.44
2023-02-04T05:38:49.292Z,74.49
2023-02-04T05:41:18.636Z,75.22
2023-02-04T05:43:45.602Z,75.41
2023-02-04T05:46:12.604Z,74.03
2023-02-04T05:48:41.762Z,73.61
2023-02-04T05:51:08.659Z,74.39
2023-02-04T05:53:37.788Z,74.72
2023-02-04T05:56:12.809Z,74.54
2023-02-04T05:58:42.829Z,74.86
2023-02-04T06:01:12.210Z,74.14
2023-02-04T06:03:39.301Z,74.63
2023-02-04T06:06:09.120Z,73.82
2023-02-04T06:08:38.451Z,74.08
2023-02-04T06:11:07.878Z,74.18
2023-02-04T06:13:34.813Z,75.43
2023-02-04T06:16:04.296Z,74.70
2023-02-04T06:18:31.297Z,74.46
2023-02-04T06:20:58.207Z,74.73
2023-02-04T06:23:25.241Z,75.79
2023-02-04T06:25:52.366Z,76.91
2023-02-04T06:28:21.425Z,76.14
2023-02-04T06:30:49.548Z,75.36
2023-02-04T06:33:16.772Z,75.53
2023-02-04T06:35:43.723Z,75.93
2023-02-04T06:38:10.615Z,75.52
2023-02-04T06:40:41.997Z,76.05
2023-02-04T06:43:11.468Z,75.64
2023-02-04T06:45:43.161Z,76.23
2023-02-04T06:48:10.189Z,75.73
2023-02-04T06:50:37.121Z,75.94
2023-02-04T06:53:06.680Z,76.25
2023-02-04T06:55:33.622Z,77.01
2023-02-04T06:58:02.740Z,77.06
2023-02-04T07:00:32.142Z,77.39
2023-02-04T07:02:59.759Z,77.13
2023-02-04T07:05:26.719Z,76.96
2023-02-04T07:07:56.627Z,77.14
2023-02-04T07:10:23.730Z,77.06
2023-02-04T07:12:50.577Z,77.53
2023-02-04T07:15:17.738Z,77.26
2023-02-04T07:17:44.825Z,76.78
2023-02-04T07:20:15.525Z,77.54
2023-02-04T07:22:42.586Z,77.81
2023-02-04T07:25:15.038Z,76.92
2023-02-04T07:27:44.074Z,76.82
2023-02-04T07:30:13.939Z,76.61
2023-02-04T07:32:43.327Z,75.95
2023-02-04T07:35:15.221Z,71.82
2023-02-04T07:37:44.269Z,68.80
2023-02-04T07:40:12.823Z,65.74
2023-02-04T07:42:41.899Z,66.20
2023-02-04T07:45:11.596Z,66.47
2023-02-04T07:47:38.720Z,64.91
2023-02-04T07:50:06.081Z,63.27
2023-02-04T07:52:33.153Z,63.55
2023-02-04T07:55:00.094Z,63.59
2023-02-04T07:57:27.099Z,63.60
2023-02-04T07:59:54.069Z,64.02
2023-02-04T08:02:21.484Z,63.30
2023-02-04T08:04:48.489Z,65.85
2023-02-04T08:07:17.506Z,64.87
2023-02-04T08:09:44.507Z,63.63
2023-02-04T08:12:11.437Z,61.19
2023-02-04T08:14:40.929Z,56.36
2023-02-04T08:17:09.863Z,51.63
2023-02-04T08:19:39.048Z,45.99
2023-02-04T08:22:08.484Z,41.41
2023-02-04T08:24:40.653Z,40.45
2023-02-04T08:27:07.734Z,39.96
2023-02-04T08:29:34.710Z,39.61
2023-02-04T08:32:02.296Z,39.89
2023-02-04T08:34:29.433Z,40.46
2023-02-04T08:36:56.531Z,41.31
2023-02-04T08:39:25.990Z,40.53
2023-02-04T08:41:53.136Z,38.25
2023-02-04T08:44:22.841Z,36.78
2023-02-04T08:46:49.791Z,35.50
2023-02-04T08:49:18.985Z,35.09
2023-02-04T08:51:46.022Z,35.26
2023-02-04T08:54:15.997Z,35.32
2023-02-04T08:56:45.024Z,33.60
2023-02-04T08:59:12.147Z,31.97
2023-02-04T09:01:51.066Z,31.80
2023-02-04T09:04:23.168Z,31.64
2023-02-04T09:06:53.964Z,31.56
2023-02-04T09:09:24.868Z,33.03
2023-02-04T09:11:53.090Z,33.63
2023-02-04T09:14:23.131Z,34.00
2023-02-04T09:16:52.325Z,32.54
2023-02-04T09:19:25.576Z,30.94
2023-02-04T09:21:54.032Z,29.79
2023-02-04T09:24:23.901Z,29.77
2023-02-04T09:26:54.699Z,29.56
2023-02-04T09:29:21.798Z,30.55
2023-02-04T09:31:49.120Z,30.18
2023-02-04T09:34:16.115Z,29.03
2023-02-04T09:36:43.043Z,28.78
2023-02-04T09:39:10.252Z,28.59
2023-02-04T09:41:41.840Z,27.49
2023-02-04T09:44:22.969Z,26.78
2023-02-04T09:46:55.996Z,27.53
2023-02-04T09:49:23.382Z,26.71
2023-02-04T09:51:53.133Z,27.10
2023-02-04T09:54:28.131Z,26.36
2023-02-04T09:56:59.422Z,25.19
2023-02-04T09:59:29.580Z,25.01
2023-02-04T10:02:01.920Z,25.04
2023-02-04T10:04:32.324Z,24.08
2023-02-04T10:06:59.329Z,24.15
2023-02-04T10:09:28.789Z,25.22
2023-02-04T10:11:58.844Z,25.63
2023-02-04T10:14:25.840Z,23.69
2023-02-04T10:16:59.786Z,22.71
2023-02-04T10:19:29.214Z,22.53
2023-02-04T10:21:56.815Z,21.86
2023-02-04T10:24:34.531Z,22.67
2023-02-04T10:27:10.688Z,22.52
2023-02-04T10:29:38.212Z,22.11
2023-02-04T10:32:05.280Z,20.83
2023-02-04T10:34:40.061Z,19.76
2023-02-04T10:37:23.628Z,19.00
2023-02-04T10:39:52.833Z,20.98
2023-02-04T10:42:26.341Z,23.57
2023-02-04T10:44:54.089Z,25.85
2023-02-04T10:47:29.010Z,24.45
2023-02-04T10:50:15.296Z,26.01
2023-02-04T10:53:15.174Z,24.28
2023-02-04T10:55:43.546Z,24.29
2023-02-04T10:58:17.346Z,29.56
2023-02-04T11:00:44.544Z,32.15
2023-02-04T11:03:22.874Z,29.86
2023-02-04T11:05:50.464Z,31.75
2023-02-04T11:08:32.546Z,35.20
2023-02-04T11:11:06.249Z,35.84
2023-02-04T11:13:51.529Z,37.48
2023-02-04T11:16:18.470Z,39.44
2023-02-04T11:18:58.248Z,42.96
2023-02-04T11:21:34.511Z,40.45
2023-02-04T11:24:16.412Z,32.76
2023-02-04T11:26:51.610Z,28.93
2023-02-04T11:29:43.804Z,26.10
2023-02-04T11:32:37.872Z,26.03
2023-02-04T11:35:27.625Z,25.29
2023-02-04T11:37:56.084Z,25.08
2023-02-04T11:40:25.326Z,23.80
2023-02-04T11:42:59.846Z,23.91
2023-02-04T11:45:32.382Z,22.32
2023-02-04T11:48:04.143Z,22.24
2023-02-04T11:50:35.278Z,27.16
2023-02-04T11:53:02.587Z,28.86
2023-02-04T11:55:39.608Z,29.63
2023-02-04T11:58:10.087Z,27.14
2023-02-04T12:00:39.417Z,25.15
2023-02-04T12:03:26.367Z,22.06
2023-02-04T12:05:59.642Z,22.94
2023-02-04T12:08:37.225Z,21.80
2023-02-04T12:11:15.834Z,22.07
2023-02-04T12:13:52.487Z,21.65
2023-02-04T12:16:22.075Z,21.33
2023-02-04T12:18:49.834Z,20.87
2023-02-04T12:21:20.280Z,22.78
2023-02-04T12:23:47.333Z,25.12
2023-02-04T12:26:14.358Z,23.28
2023-02-04T12:28:41.271Z,21.41
2023-02-04T12:31:08.458Z,21.34
2023-02-04T12:33:37.769Z,20.16
2023-02-04T12:36:05.305Z,19.50
2023-02-04T12:38:34.450Z,20.33
2023-02-04T12:41:01.564Z,19.72
2023-02-04T12:43:28.561Z,19.45
2023-02-04T12:45:58.058Z,18.56
2023-02-04T12:48:26.188Z,18.93
2023-02-04T12:50:53.426Z,19.05
2023-02-04T12:53:23.058Z,20.56
2023-02-04T12:55:50.117Z,21.34
2023-02-04T12:58:19.622Z,19.97
2023-02-04T13:00:46.628Z,20.39
2023-02-04T13:03:16.263Z,21.88
2023-02-04T13:05:47.925Z,20.73
2023-02-04T13:08:14.842Z,20.99
2023-02-04T13:10:43.853Z,22.13
2023-02-04T13:13:10.840Z,22.05
2023-02-04T13:15:40.114Z,20.77
2023-02-04T13:18:08.314Z,20.80
2023-02-04T13:20:35.892Z,21.24
2023-02-04T13:23:03.994Z,21.27
2023-02-04T13:25:31.429Z,21.59
2023-02-04T13:28:04.475Z,22.58
2023-02-04T13:30:31.621Z,23.37
2023-02-04T13:33:01.241Z,23.69
2023-02-04T13:35:31.116Z,26.27
2023-02-04T13:38:01.258Z,27.19
2023-02-04T13:40:30.573Z,26.66
2023-02-04T13:42:57.706Z,25.21
2023-02-04T13:45:25.225Z,25.40
2023-02-04T13:47:55.718Z,26.33
2023-02-04T13:50:25.650Z,26.98
2023-02-04T13:52:52.923Z,28.11
2023-02-04T13:55:20.037Z,30.47
2023-02-04T13:57:47.169Z,32.98
2023-02-04T14:00:14.921Z,33.73
2023-02-04T14:02:44.578Z,35.35
2023-02-04T14:05:14.064Z,36.38
2023-02-04T14:07:41.116Z,37.19
2023-02-04T14:10:11.813Z,37.76
2023-02-04T14:12:42.396Z,37.80
2023-02-04T14:15:09.931Z,37.92
2023-02-04T14:17:43.231Z,39.04
2023-02-04T14:20:13.158Z,38.34
2023-02-04T14:22:42.899Z,39.45
2023-02-04T14:25:10.418Z,38.12
2023-02-04T14:27:42.521Z,39.84
2023-02-04T14:30:19.117Z,40.08
2023-02-04T14:32:47.015Z,39.14
2023-02-04T14:35:17.045Z,38.08
2023-02-04T14:37:47.533Z,38.26
2023-02-04T14:40:25.054Z,38.54
2023-02-04T14:42:54.541Z,37.86
2023-02-04T14:45:21.554Z,38.43
2023-02-04T14:47:48.647Z,39.38
2023-02-04T14:50:17.304Z,40.51
2023-02-04T14:52:44.301Z,40.59
2023-02-04T14:55:14.477Z,41.23
2023-02-04T14:57:44.083Z,42.73
2023-02-04T15:00:16.979Z,42.91
2023-02-04T15:02:46.181Z,43.90
2023-02-04T15:05:15.242Z,44.29
2023-02-04T15:07:46.953Z,44.51
2023-02-04T15:10:16.726Z,45.05
2023-02-04T15:12:44.069Z,45.44
2023-02-04T15:15:11.334Z,45.60
2023-02-04T15:17:40.721Z,46.76
2023-02-04T15:20:11.366Z,47.46
2023-02-04T15:22:39.262Z,48.10
2023-02-04T15:25:07.030Z,48.24
2023-02-04T15:27:39.163Z,48.77
2023-02-04T15:30:10.453Z,49.90
2023-02-04T15:32:37.651Z,50.16
2023-02-04T15:35:08.534Z,49.75
2023-02-04T15:37:35.802Z,50.24
2023-02-04T15:40:02.849Z,51.34
2023-02-04T15:42:33.360Z,51.04
2023-02-04T15:45:02.843Z,52.12
2023-02-04T15:47:32.349Z,52.94
2023-02-04T15:49:59.255Z,53.25
2023-02-04T15:52:31.093Z,54.06
2023-02-04T15:54:58.017Z,54.46
2023-02-04T15:57:25.076Z,54.76
2023-02-04T15:59:54.676Z,55.05
2023-02-04T16:02:21.844Z,54.84
2023-02-04T16:04:54.527Z,54.42
2023-02-04T16:07:21.544Z,54.70
2023-02-04T16:09:48.639Z,55.80
2023-02-04T16:12:15.733Z,55.11
2023-02-04T16:14:45.173Z,55.53
2023-02-04T16:17:14.732Z,55.98
2023-02-04T16:19:41.704Z,56.32
2023-02-04T16:22:08.791Z,55.81
2023-02-04T16:24:35.965Z,55.86
2023-02-04T16:27:03.109Z,55.58
2023-02-04T16:29:30.232Z,55.63
2023-02-04T16:32:00.606Z,56.36
2023-02-04T16:34:29.238Z,56.32
2023-02-04T16:36:58.611Z,56.81
2023-02-04T16:39:25.600Z,56.72
2023-02-04T16:41:52.776Z,57.04
2023-02-04T16:44:19.736Z,57.36
2023-02-04T16:46:49.120Z,58.47
2023-02-04T16:49:17.201Z,57.42
2023-02-04T16:51:44.198Z,56.64
2023-02-04T16:54:14.379Z,57.18
2023-02-04T16:56:43.535Z,57.14
2023-02-04T16:59:10.594Z,57.01
2023-02-04T17:01:37.654Z,57.58
2023-02-04T17:04:07.933Z,56.25
2023-02-04T17:06:35.945Z,57.41
2023-02-04T17:09:02.945Z,57.60
2023-02-04T17:11:29.961Z,59.11
2023-02-04T17:14:03.090Z,59.03
2023-02-04T17:16:30.870Z,59.26
2023-02-04T17:18:58.142Z,58.30
2023-02-04T17:21:30.160Z,58.72
2023-02-04T17:24:04.281Z,59.12
2023-02-04T17:26:39.554Z,58.99
2023-02-04T17:29:17.922Z,58.17
2023-02-04T17:31:45.067Z,58.55
2023-02-04T17:34:12.378Z,58.47
2023-02-04T17:36:39.637Z,58.13
2023-02-04T17:39:07.736Z,59.20
2023-02-04T17:41:39.717Z,59.25
2023-02-04T17:44:06.910Z,59.58
2023-02-04T17:46:38.862Z,60.87
2023-02-04T17:49:05.857Z,60.46
2023-02-04T17:51:33.122Z,60.39
2023-02-04T17:54:02.642Z,60.67
2023-02-04T17:56:29.666Z,61.60
2023-02-04T17:58:56.867Z,61.53
2023-02-04T18:01:26.696Z,61.74
2023-02-04T18:03:58.258Z,61.24
2023-02-04T18:06:29.032Z,61.67
2023-02-04T18:09:05.066Z,63.19
2023-02-04T18:11:39.490Z,64.26
2023-02-04T18:14:27.965Z,64.77
2023-02-04T18:16:58.882Z,64.48
2023-02-04T18:19:36.926Z,65.16
2023-02-04T18:22:15.750Z,64.99
2023-02-04T18:24:46.122Z,65.40
2023-02-04T18:27:23.929Z,66.09
2023-02-04T18:29:59.136Z,67.38
2023-02-04T18:32:42.195Z,66.88
2023-02-04T18:35:42.290Z,65.81
2023-02-04T18:38:32.212Z,66.00
2023-02-04T18:41:21.246Z,65.86
2023-02-04T18:43:51.121Z,63.99
2023-02-04T18:46:33.167Z,63.54
2023-02-04T18:49:17.466Z,63.97
2023-02-04T18:51:45.669Z,63.99
2023-02-04T18:54:24.639Z,63.92
2023-02-04T18:56:53.446Z,63.76
2023-02-04T18:59:21.416Z,63.81
2023-02-04T19:01:51.313Z,63.18
2023-02-04T19:04:26.075Z,63.10
2023-02-04T19:06:55.046Z,63.58
2023-02-04T19:09:29.170Z,64.17
2023-02-04T19:11:58.802Z,64.50
2023-02-04T19:14:43.897Z,63.28
2023-02-04T19:17:14.409Z,63.92
2023-02-04T19:19:46.374Z,64.49
2023-02-04T19:22:49.708Z,64.46
2023-02-04T19:25:27.599Z,65.17
2023-02-04T19:28:00.722Z,64.32
2023-02-04T19:30:30.772Z,64.40
2023-02-04T19:33:14.254Z,64.93
2023-02-04T19:35:46.344Z,65.18
2023-02-04T19:38:45.307Z,64.92
2023-02-04T19:41:48.377Z,65.37
2023-02-04T19:44:20.389Z,65.17
2023-02-04T19:46:49.754Z,65.31
2023-02-04T19:49:30.003Z,65.49
2023-02-04T19:51:59.514Z,66.03
2023-02-04T19:54:46.965Z,66.26
2023-02-04T19:57:25.327Z,66.63
2023-02-04T19:59:59.945Z,66.06
2023-02-04T20:02:38.344Z,65.38
2023-02-04T20:05:20.893Z,65.97
2023-02-04T20:07:50.319Z,65.65
2023-02-04T20:10:24.618Z,65.04
2023-02-04T20:13:18.725Z,66.75
2023-02-04T20:15:48.439Z,66.28
2023-02-04T20:18:20.522Z,65.88
2023-02-04T20:20:47.661Z,66.88
2023-02-04T20:23:29.187Z,66.39
2023-02-04T20:25:59.568Z,66.60
2023-02-04T20:28:40.185Z,66.88
2023-02-04T20:31:38.753Z,66.54
2023-02-04T20:34:22.653Z,67.16
2023-02-04T20:36:52.399Z,67.52
2023-02-04T20:39:34.314Z,68.71
2023-02-04T20:42:20.824Z,69.14
2023-02-04T20:44:48.516Z,69.50
2023-02-04T20:47:25.452Z,70.08
2023-02-04T20:50:01.253Z,69.77
2023-02-04T20:52:43.870Z,69.80
2023-02-04T20:55:22.889Z,70.13
2023-02-04T20:57:58.979Z,69.34
2023-02-04T21:00:34.855Z,70.43
2023-02-04T21:03:15.865Z,71.11
2023-02-04T21:05:46.909Z,72.19
2023-02-04T21:08:21.334Z,72.47
2023-02-04T21:10:48.310Z,72.12
2023-02-04T21:13:15.587Z,73.20
2023-02-04T21:15:45.859Z,72.57
2023-02-04T21:18:16.044Z,71.80
2023-02-04T21:20:43.229Z,72.29
2023-02-04T21:23:10.407Z,72.73
2023-02-04T21:25:37.909Z,73.23
2023-02-04T21:28:06.406Z,73.98
2023-02-04T21:30:33.625Z,73.94
2023-02-04T21:33:02.307Z,74.85
2023-02-04T21:35:30.136Z,74.42
2023-02-04T21:38:04.569Z,74.80
2023-02-04T21:40:37.504Z,74.32
2023-02-04T21:43:08.584Z,74.43
2023-02-04T21:45:39.887Z,74.69
2023-02-04T21:48:10.436Z,75.20
2023-02-04T21:50:38.654Z,76.09
2023-02-04T21:53:08.413Z,75.48
2023-02-04T21:55:39.377Z,76.18
2023-02-04T21:58:09.087Z,75.87
2023-02-04T22:00:39.348Z,76.14
2023-02-04T22:03:10.153Z,77.08
2023-02-04T22:05:37.851Z,76.86
2023-02-04T22:08:12.808Z,75.44
2023-02-04T22:10:39.880Z,74.83
2023-02-04T22:13:07.121Z,74.01
2023-02-04T22:15:37.858Z,74.25
2023-02-04T22:18:09.439Z,75.23
2023-02-04T22:20:38.612Z,75.96
2023-02-04T22:23:06.860Z,75.26
2023-02-04T22:25:35.090Z,74.96
2023-02-04T22:28:02.225Z,75.29
2023-02-04T22:30:29.370Z,75.08
2023-02-04T22:33:00.807Z,74.78
2023-02-04T22:35:33.677Z,74.82
2023-02-04T22:38:04.471Z,75.09
2023-02-04T22:40:31.412Z,74.96
2023-02-04T22:43:01.163Z,74.22
2023-02-04T22:45:31.270Z,74.89
2023-02-04T22:48:01.094Z,75.81
2023-02-04T22:50:28.026Z,76.20
2023-02-04T22:52:55.392Z,76.45
2023-02-04T22:55:25.678Z,76.46
2023-02-04T22:57:52.880Z,76.03
2023-02-04T23:00:22.554Z,76.37
2023-02-04T23:02:49.736Z,77.11
2023-02-04T23:05:19.092Z,77.08
2023-02-04T23:07:46.564Z,77.94
2023-02-04T23:10:14.503Z,78.04
2023-02-04T23:12:44.215Z,77.83
2023-02-04T23:15:15.568Z,78.02
2023-02-04T23:17:42.505Z,78.44
2023-02-04T23:20:10.245Z,78.80
2023-02-04T23:22:37.605Z,77.92
2023-02-04T23:25:06.505Z,77.40
2023-02-04T23:27:34.089Z,78.78
2023-02-04T23:30:01.027Z,79.32
2023-02-04T23:32:30.963Z,80.39
2023-02-04T23:35:00.650Z,79.61
2023-02-04T23:37:28.320Z,79.14
2023-02-04T23:39:58.086Z,79.15
2023-02-04T23:42:31.201Z,78.92
2023-02-04T23:45:00.337Z,78.94
2023-02-04T23:47:27.402Z,79.01
2023-02-04T23:49:54.369Z,78.36
2023-02-04T23:52:23.663Z,79.26
2023-02-04T23:54:55.381Z,79.01
2023-02-04T23:57:24.785Z,79.62
2023-02-04T23:59:54.731Z,79.83
